createdAt,value
2024-03-01T00:05:03.800Z,46.00
2024-03-01T00:10:08.941Z,47.00
2024-03-01T00:15:12.034Z,45.50
2024-03-01T00:20:16.403Z,48.00
2024-03-01T00:25:20.160Z,45.00
2024-03-01T00:30:23.074Z,46.00
2024-03-01T00:35:27.358Z,45.75
2024-03-01T00:40:30.193Z,45.50
2024-03-01T00:45:33.264Z,44.50
2024-03-01T00:50:37.473Z,44.75
2024-03-01T00:55:40.291Z,45.25
2024-03-01T01:00:43.372Z,45.00
2024-03-01T01:05:47.545Z,44.25
2024-03-01T01:10:50.468Z,45.00
2024-03-01T01:15:53.422Z,43.50
2024-03-01T01:20:57.737Z,44.00
2024-03-01T01:26:00.590Z,44.00
2024-03-01T01:31:03.517Z,44.00
2024-03-01T01:36:08.094Z,43.75
2024-03-01T01:41:11.029Z,44.00
2024-03-01T01:46:14.051Z,43.25
2024-03-01T01:51:19.055Z,41.00
2024-03-01T01:56:21.932Z,42.50
2024-03-01T02:01:24.910Z,41.25
2024-03-01T02:06:30.381Z,41.75
2024-03-01T02:11:35.273Z,41.50
2024-03-01T02:16:38.304Z,42.00
2024-03-01T02:21:45.127Z,41.00
2024-03-01T02:26:49.469Z,41.75
2024-03-01T02:31:52.283Z,41.00
2024-03-01T02:36:55.129Z,40.00
2024-03-01T02:41:59.710Z,41.00
2024-03-01T02:47:02.568Z,40.00
2024-03-01T02:52:05.597Z,40.00
2024-03-01T02:57:10.747Z,40.50
2024-03-01T03:02:13.507Z,40.00
2024-03-01T03:07:16.598Z,39.25
2024-03-01T03:12:20.762Z,38.00
2024-03-01T03:17:23.956Z,39.25
2024-03-01T03:22:26.784Z,39.00
2024-03-01T03:27:30.956Z,39.00
2024-03-01T03:32:33.805Z,37.67
2024-03-01T03:37:36.797Z,39.00
2024-03-01T03:42:41.193Z,39.00
2024-03-01T03:47:43.948Z,39.75
2024-03-01T03:52:46.741Z,38.33
2024-03-01T03:57:50.944Z,38.33
2024-03-01T04:02:53.860Z,36.00
2024-03-01T04:07:56.644Z,37.00
2024-03-01T04:13:01.288Z,36.67
2024-03-01T04:18:04.374Z,38.00
2024-03-01T04:23:07.232Z,35.33
2024-03-01T04:28:11.648Z,34.33
2024-03-01T04:33:14.569Z,37.67
2024-03-01T04:38:17.540Z,36.00
2024-03-01T04:43:22.118Z,36.00
2024-03-01T04:48:25.128Z,34.00
2024-03-01T04:53:27.932Z,35.67
2024-03-01T04:58:32.173Z,34.00
2024-03-01T05:03:35.040Z,35.33
2024-03-01T05:08:37.780Z,34.33
2024-03-01T05:13:42.354Z,36.00
2024-03-01T05:18:45.271Z,33.00
2024-03-01T05:23:48.133Z,35.00
2024-03-01T05:28:52.497Z,34.00
2024-03-01T05:33:55.342Z,34.00
2024-03-01T05:38:58.154Z,33.00
2024-03-01T05:50:50.108Z,33.00
2024-03-01T05:55:53.114Z,32.67
2024-03-01T06:00:56.410Z,33.00
2024-03-01T06:06:02.000Z,32.00
2024-03-01T06:11:06.054Z,31.00
2024-03-01T06:16:09.482Z,32.67
2024-03-01T06:21:21.640Z,33.00
2024-03-01T06:26:24.523Z,30.67
2024-03-01T06:31:27.461Z,33.00
2024-03-01T06:36:31.683Z,32.67
2024-03-01T06:41:34.548Z,30.75
2024-03-01T06:46:37.508Z,31.00
2024-03-01T06:51:41.717Z,31.00
2024-03-01T06:56:44.559Z,32.00
2024-03-01T07:01:47.496Z,32.00
2024-03-01T07:06:51.856Z,30.00
2024-03-01T07:11:54.735Z,30.00
2024-03-01T07:16:57.788Z,30.50
2024-03-01T07:22:02.139Z,30.00
2024-03-01T07:27:05.454Z,30.00
2024-03-01T07:32:08.672Z,31.50
2024-03-01T07:37:13.346Z,30.25
2024-03-01T07:42:16.227Z,29.50
2024-03-01T07:47:19.097Z,30.00
2024-03-01T07:52:23.320Z,27.50
2024-03-01T07:57:26.163Z,24.50
2024-03-01T08:02:28.956Z,24.50
2024-03-01T08:07:33.230Z,22.75
2024-03-01T08:12:36.042Z,21.00
2024-03-01T08:17:39.099Z,21.25
2024-03-01T08:22:43.450Z,17.00
2024-03-01T08:27:46.296Z,17.20
2024-03-01T08:32:49.841Z,25.50
2024-03-01T08:37:54.019Z,18.00
2024-03-01T08:42:56.904Z,17.40
2024-03-01T08:48:14.604Z,15.75
2024-03-01T08:54:00.517Z,14.60
2024-03-01T08:59:09.718Z,15.80
2024-03-01T09:04:13.978Z,15.20
2024-03-01T09:09:23.038Z,13.80
2024-03-01T09:14:30.680Z,12.40
2024-03-01T09:19:37.736Z,14.00
2024-03-01T09:24:41.892Z,16.00
2024-03-01T09:29:47.770Z,14.20
2024-03-01T09:34:50.675Z,15.20
2024-03-01T09:39:54.985Z,13.80
2024-03-01T09:45:18.747Z,13.60
2024-03-01T09:50:27.491Z,14.40
2024-03-01T09:55:34.966Z,14.00
2024-03-01T10:00:40.402Z,16.40
2024-03-01T10:05:55.625Z,19.00
2024-03-01T10:11:19.038Z,19.00
2024-03-01T10:16:26.961Z,19.50
2024-03-01T10:21:31.977Z,19.00
2024-03-01T10:26:36.155Z,17.20
2024-03-01T10:31:43.188Z,17.80
2024-03-01T10:36:47.025Z,18.60
2024-03-01T10:41:59.538Z,16.80
2024-03-01T10:47:07.399Z,17.00
2024-03-01T10:52:12.962Z,17.00
2024-03-01T10:57:18.550Z,13.80
2024-03-01T11:02:24.783Z,14.60
2024-03-01T11:07:30.416Z,15.80
2024-03-01T11:12:36.797Z,13.00
2024-03-01T11:17:39.923Z,13.00
2024-03-01T11:22:44.794Z,14.00
2024-03-01T11:27:50.714Z,16.80
2024-03-01T11:32:56.445Z,14.80
2024-03-01T11:38:02.427Z,12.60
2024-03-01T11:43:12.763Z,13.80
2024-03-01T11:48:26.976Z,12.40
2024-03-01T11:53:48.901Z,14.20
2024-03-01T11:58:55.973Z,14.60
2024-03-01T12:04:20.651Z,12.40
2024-03-01T12:09:28.299Z,14.00
2024-03-01T12:14:34.046Z,13.00
2024-03-01T12:19:41.483Z,11.80
2024-03-01T12:24:44.302Z,12.40
2024-03-01T12:29:58.612Z,13.00
2024-03-01T12:35:11.243Z,11.00
2024-03-01T12:40:19.028Z,11.60
2024-03-01T12:45:28.846Z,13.00
2024-03-01T12:50:39.095Z,11.60
2024-03-01T12:55:48.889Z,12.40
2024-03-01T13:00:57.424Z,11.40
2024-03-01T13:06:00.322Z,12.60
2024-03-01T13:11:05.120Z,10.40
2024-03-01T13:16:11.979Z,12.40
2024-03-01T13:21:18.126Z,12.00
2024-03-01T13:26:26.521Z,12.80
2024-03-01T13:31:37.157Z,13.00
2024-03-01T13:36:41.743Z,10.40
2024-03-01T13:41:50.872Z,10.00
2024-03-01T13:46:58.600Z,11.20
2024-03-01T13:52:01.420Z,9.80
2024-03-01T13:57:05.882Z,10.00
2024-03-01T14:02:12.382Z,10.00
2024-03-01T14:07:16.223Z,10.20
2024-03-01T14:12:19.035Z,9.40
2024-03-01T14:17:24.270Z,12.80
2024-03-01T14:22:27.144Z,10.00
2024-03-01T14:27:30.877Z,10.80
2024-03-01T14:32:35.259Z,10.00
2024-03-01T14:37:38.227Z,10.00
2024-03-01T14:42:42.132Z,8.40
2024-03-01T14:47:55.321Z,7.80
2024-03-01T14:53:03.265Z,9.60
2024-03-01T14:58:09.929Z,9.60
2024-03-01T15:03:15.236Z,9.20
2024-03-01T15:08:20.658Z,10.80
2024-03-01T15:13:24.108Z,11.00
2024-03-01T15:18:28.398Z,10.00
2024-03-01T15:23:38.991Z,10.80
2024-03-01T15:28:42.836Z,7.40
2024-03-01T15:33:48.631Z,8.80
2024-03-01T15:38:51.483Z,10.20
2024-03-01T15:43:54.336Z,8.00
2024-03-01T15:48:58.657Z,10.00
2024-03-01T15:54:01.490Z,8.60
2024-03-01T15:59:06.796Z,10.00
2024-03-01T16:04:11.244Z,8.80
2024-03-01T16:09:14.012Z,8.60
2024-03-01T16:14:16.769Z,8.20
2024-03-01T16:19:21.492Z,10.80
2024-03-01T16:24:24.309Z,9.00
2024-03-01T16:29:27.117Z,8.00
2024-03-01T16:34:31.529Z,8.00
2024-03-01T16:39:35.517Z,7.20
2024-03-01T16:44:42.339Z,9.40
2024-03-01T16:49:46.641Z,8.00
2024-03-01T16:54:49.548Z,7.60
2024-03-01T16:59:52.305Z,8.00
2024-03-01T17:04:56.689Z,7.80
2024-03-01T17:10:00.038Z,8.00
2024-03-01T17:15:03.982Z,8.60
2024-03-01T17:20:10.056Z,7.00
2024-03-01T17:25:12.839Z,7.40
2024-03-01T17:30:16.221Z,7.20
2024-03-01T17:35:22.242Z,9.60
2024-03-01T17:40:26.028Z,9.00
2024-03-01T17:45:29.228Z,8.60
2024-03-01T17:50:33.352Z,8.60
2024-03-01T17:55:36.321Z,8.40
2024-03-01T18:00:39.293Z,9.60
2024-03-01T18:05:43.583Z,7.00
2024-03-01T18:10:46.445Z,9.40
2024-03-01T18:15:49.396Z,9.80
2024-03-01T18:20:54.400Z,13.00
2024-03-01T18:25:57.402Z,15.60
2024-03-01T18:31:02.456Z,19.00
2024-03-01T18:36:07.521Z,20.50
2024-03-01T18:41:10.590Z,21.75
2024-03-01T18:46:13.628Z,22.50
2024-03-01T18:51:17.858Z,23.75
2024-03-01T18:56:21.585Z,28.25
2024-03-01T19:01:24.635Z,27.75
2024-03-01T19:06:28.916Z,30.33
2024-03-01T19:11:31.933Z,32.33
2024-03-01T19:16:35.162Z,33.67
2024-03-01T19:21:39.422Z,36.00
2024-03-01T19:26:42.242Z,36.00
2024-03-01T19:31:45.167Z,39.00
2024-03-01T19:36:49.580Z,42.00
2024-03-01T19:41:53.892Z,45.00
2024-03-01T19:46:58.492Z,46.25
2024-03-01T19:52:02.669Z,48.25
2024-03-01T19:57:06.001Z,48.50
2024-03-01T20:02:09.009Z,49.00
2024-03-01T20:07:13.311Z,50.00
2024-03-01T20:12:16.278Z,50.50
2024-03-01T20:17:19.099Z,49.00
2024-03-01T20:22:23.807Z,50.00
2024-03-01T20:27:26.786Z,48.50
2024-03-01T20:32:29.940Z,48.25
2024-03-01T20:37:34.337Z,49.75
2024-03-01T20:42:37.234Z,50.00
2024-03-01T20:47:40.047Z,48.00
2024-03-01T20:52:44.337Z,47.75
2024-03-01T20:57:47.273Z,47.50
2024-03-01T21:09:49.723Z,47.50
2024-03-01T21:14:53.203Z,46.00
2024-03-01T21:19:56.079Z,48.00
2024-03-01T21:25:00.298Z,47.50
2024-03-01T21:30:03.180Z,46.00
2024-03-01T21:35:07.861Z,46.00
2024-03-01T21:40:21.118Z,45.50
2024-03-01T21:45:23.989Z,46.00
2024-03-01T21:50:26.860Z,45.00
2024-03-01T21:55:31.117Z,45.50
2024-03-01T22:00:34.045Z,45.25
2024-03-01T22:05:36.927Z,45.00
2024-03-01T22:10:41.135Z,45.50
2024-03-01T22:15:44.248Z,45.25
2024-03-01T22:20:47.153Z,44.50
2024-03-01T22:25:51.304Z,43.00
2024-03-01T22:30:54.882Z,44.00
2024-03-01T22:35:57.788Z,42.00
2024-03-01T22:41:02.722Z,43.00
2024-03-01T22:46:06.048Z,43.00
2024-03-01T22:51:09.821Z,43.50
2024-03-01T22:56:19.555Z,42.50
2024-03-01T23:01:25.064Z,43.00
2024-03-01T23:06:28.325Z,41.75
2024-03-01T23:11:42.106Z,42.00
2024-03-01T23:16:44.908Z,42.25
2024-03-01T23:21:47.701Z,43.00
2024-03-01T23:26:52.170Z,43.75
2024-03-01T23:31:55.024Z,40.00
2024-03-01T23:37:00.033Z,41.75
2024-03-01T23:42:05.012Z,41.00
2024-03-01T23:47:08.260Z,41.00
2024-03-01T23:52:11.429Z,40.00
2024-03-01T23:57:15.660Z,40.75
